Terminal Aerodrome Forecast
Issued by NWS Louisville, KY

Home | Current Version | Previous Version | Text Only | Print | Product List | Glossary On
Versions: 1 2 3 4 5 6 7 8 9 10 11 12 13 14 15 16 17
000
FTUS43 KLMK 230910 AAB
TAFSDF
TAF AMD
KSDF 230910Z 2309/2412 28008KT 6SM -SHRA VCTS BKN060CB
      TEMPO 2310/2312 VRB10G20KT 2SM TSRA BKN040CB
     FM231300 24009KT P6SM BKN050
     FM231800 26010KT P6SM BKN050 PROB30 2318/2323 VRB13G23KT 3SM
      -TSRA BKN050CB
     FM232300 VRB04KT P6SM SCT050=

USA.gov is the U.S. government's official web portal to all federal, state and local government web resources and services.